createdAt,value
2023-05-19T00:00:45.029Z,402.20
2023-05-19T00:01:43.365Z,387.70
2023-05-19T00:02:43.546Z,399.30
2023-05-19T00:03:43.421Z,374.50
2023-05-19T00:04:43.389Z,426.10
2023-05-19T00:05:43.422Z,418.90
2023-05-19T00:06:43.320Z,445.00
2023-05-19T00:07:43.651Z,451.40
2023-05-19T00:08:43.384Z,459.10
2023-05-19T00:09:43.350Z,442.00
2023-05-19T00:10:43.315Z,455.40
2023-05-19T00:11:43.281Z,460.60
2023-05-19T00:12:43.344Z,448.90
2023-05-19T00:13:43.307Z,432.30
2023-05-19T00:14:43.257Z,459.70
2023-05-19T00:15:43.294Z,490.30
2023-05-19T00:16:43.251Z,485.30
2023-05-19T00:17:43.347Z,534.40
2023-05-19T00:18:43.642Z,476.80
2023-05-19T00:19:43.222Z,531.30
2023-05-19T00:20:43.214Z,479.20
2023-05-19T00:21:43.226Z,768.40
2023-05-19T00:22:43.125Z,580.60
2023-05-19T00:23:43.085Z,629.60
2023-05-19T00:24:43.099Z,753.40
2023-05-19T00:25:43.101Z,769.30
2023-05-19T00:26:43.053Z,721.00
2023-05-19T00:27:43.153Z,810.20
2023-05-19T00:28:43.062Z,644.30
2023-05-19T00:29:43.101Z,679.00
2023-05-19T00:30:43.107Z,674.60
2023-05-19T00:31:43.139Z,657.80
2023-05-19T00:32:43.162Z,697.10
2023-05-19T00:33:43.107Z,699.50
2023-05-19T00:34:43.197Z,700.40
2023-05-19T00:35:43.362Z,689.70
2023-05-19T00:36:43.182Z,658.20
2023-05-19T00:37:43.167Z,696.50
2023-05-19T00:38:43.098Z,671.90
2023-05-19T00:39:43.160Z,671.60
2023-05-19T00:40:43.049Z,698.90
2023-05-19T00:41:43.044Z,646.80
2023-05-19T00:42:43.052Z,657.70
2023-05-19T00:43:43.042Z,709.50
2023-05-19T00:44:43.031Z,699.00
2023-05-19T00:45:43.070Z,791.50
2023-05-19T00:46:43.295Z,895.20
2023-05-19T00:47:43.084Z,939.00
2023-05-19T00:48:43.010Z,1007.50
2023-05-19T00:49:43.022Z,1082.50
2023-05-19T00:50:43.036Z,1161.90
2023-05-19T00:51:43.031Z,1083.00
2023-05-19T00:52:43.006Z,975.00
2023-05-19T00:53:42.985Z,940.50
2023-05-19T00:54:43.044Z,934.70
2023-05-19T00:55:43.033Z,940.90
2023-05-19T00:56:42.849Z,954.10
2023-05-19T00:57:42.837Z,898.70
2023-05-19T00:58:42.876Z,869.00
2023-05-19T00:59:42.852Z,889.20
2023-05-19T01:00:43.421Z,889.20
2023-05-19T01:01:42.928Z,885.30
2023-05-19T01:02:43.069Z,892.90
2023-05-19T01:03:43.369Z,900.00
2023-05-19T01:04:42.946Z,859.20
2023-05-19T01:05:42.960Z,885.10
2023-05-19T01:06:42.895Z,919.10
2023-05-19T01:07:42.887Z,929.90
2023-05-19T01:08:42.850Z,912.60
2023-05-19T01:09:42.880Z,885.10
2023-05-19T01:10:42.891Z,848.60
2023-05-19T01:11:42.917Z,871.60
2023-05-19T01:12:42.847Z,873.90
2023-05-19T01:13:43.930Z,898.40
2023-05-19T01:14:43.162Z,892.90
2023-05-19T01:15:42.892Z,888.50
2023-05-19T01:16:43.008Z,903.50
2023-05-19T01:17:42.915Z,946.90
2023-05-19T01:18:42.824Z,971.20
2023-05-19T01:19:42.885Z,994.10
2023-05-19T01:20:42.800Z,1008.20
2023-05-19T01:21:42.797Z,1037.00
2023-05-19T01:22:42.725Z,1028.20
2023-05-19T01:23:42.735Z,1007.90
2023-05-19T01:24:42.681Z,1023.40
2023-05-19T01:25:42.655Z,973.70
2023-05-19T01:26:42.635Z,1012.40
2023-05-19T01:27:42.718Z,991.70
2023-05-19T01:28:42.669Z,1042.50
2023-05-19T01:29:42.614Z,1046.20
2023-05-19T01:30:42.681Z,1041.50
2023-05-19T01:31:42.690Z,1023.70
2023-05-19T01:32:42.695Z,988.60
2023-05-19T01:33:42.628Z,1009.40
2023-05-19T01:34:43.697Z,1026.30
2023-05-19T01:35:42.596Z,1007.00
2023-05-19T01:36:42.714Z,1023.80
2023-05-19T01:37:42.768Z,995.20
2023-05-19T01:38:42.684Z,1023.30
2023-05-19T01:39:42.683Z,994.40
2023-05-19T01:40:42.759Z,882.30
2023-05-19T01:41:42.705Z,935.80
2023-05-19T01:42:42.757Z,971.70
2023-05-19T01:43:42.705Z,1019.70
2023-05-19T01:44:42.705Z,1054.20
2023-05-19T01:45:43.052Z,1026.60
2023-05-19T01:46:42.711Z,1006.40
2023-05-19T01:47:42.699Z,983.90
2023-05-19T01:48:42.634Z,1045.10
2023-05-19T01:49:42.611Z,985.80
2023-05-19T01:50:42.632Z,1014.40
2023-05-19T01:51:42.610Z,1000.00
2023-05-19T01:52:42.638Z,984.30
2023-05-19T01:53:42.632Z,954.90
2023-05-19T01:54:42.567Z,929.60
2023-05-19T01:55:42.553Z,891.20
2023-05-19T01:56:42.853Z,884.60
2023-05-19T01:57:42.854Z,910.90
2023-05-19T01:58:42.566Z,996.50
2023-05-19T01:59:42.490Z,916.80
2023-05-19T02:00:42.440Z,916.80
2023-05-19T02:01:42.543Z,902.00
2023-05-19T02:02:42.425Z,912.10
2023-05-19T02:03:42.432Z,922.00
2023-05-19T02:04:42.537Z,950.50
2023-05-19T02:05:42.410Z,971.40
2023-05-19T02:06:42.376Z,961.10
2023-05-19T02:07:42.423Z,971.70
2023-05-19T02:08:42.394Z,973.00
2023-05-19T02:09:42.418Z,948.30
2023-05-19T02:10:42.508Z,968.70
2023-05-19T02:11:42.465Z,966.70
2023-05-19T02:12:42.486Z,1052.60
2023-05-19T02:13:42.354Z,980.40
2023-05-19T02:14:42.754Z,986.60
2023-05-19T02:15:42.576Z,983.10
2023-05-19T02:16:42.482Z,991.60
2023-05-19T02:17:42.454Z,988.00
2023-05-19T02:18:42.449Z,1008.20
2023-05-19T02:19:42.406Z,1038.70
2023-05-19T02:20:42.433Z,1005.80
2023-05-19T02:21:42.426Z,1065.40
2023-05-19T02:22:42.422Z,1052.50
2023-05-19T02:23:42.423Z,1042.90
2023-05-19T02:24:42.441Z,1042.30
2023-05-19T02:25:42.697Z,1019.20
2023-05-19T02:26:42.335Z,1027.20
2023-05-19T02:27:42.354Z,1041.90
2023-05-19T02:28:42.340Z,1031.90
2023-05-19T02:29:42.343Z,1050.60
2023-05-19T02:30:42.395Z,1119.70
2023-05-19T02:31:43.458Z,1093.30
2023-05-19T02:32:42.466Z,1125.80
2023-05-19T02:33:42.295Z,1062.60
2023-05-19T02:34:42.337Z,1052.40
2023-05-19T02:35:42.318Z,1061.50
2023-05-19T02:36:42.636Z,1126.90
2023-05-19T02:37:42.263Z,1132.60
2023-05-19T02:38:42.238Z,1077.00
2023-05-19T02:39:42.301Z,1114.20
2023-05-19T02:40:42.192Z,1127.80
2023-05-19T02:41:42.249Z,1138.90
2023-05-19T02:42:42.173Z,1149.60
2023-05-19T02:43:42.181Z,1123.20
2023-05-19T02:44:42.167Z,1235.10
2023-05-19T02:45:42.162Z,1133.30
2023-05-19T02:46:42.409Z,1228.30
2023-05-19T02:47:43.198Z,1184.90
2023-05-19T02:48:42.114Z,1093.60
2023-05-19T02:49:42.168Z,1205.00
2023-05-19T02:50:42.258Z,1014.70
2023-05-19T02:51:42.248Z,1069.10
2023-05-19T02:52:42.231Z,1111.40
2023-05-19T02:53:42.284Z,1094.90
2023-05-19T02:54:42.484Z,1188.40
2023-05-19T02:55:42.196Z,1024.30
2023-05-19T02:56:42.193Z,1114.90
2023-05-19T02:57:42.222Z,1083.60
2023-05-19T02:58:42.190Z,1140.70
2023-05-19T02:59:42.173Z,986.10
2023-05-19T03:00:42.157Z,990.30
2023-05-19T03:01:42.151Z,1047.10
2023-05-19T03:02:42.260Z,1010.90
2023-05-19T03:03:42.274Z,1027.40
2023-05-19T03:04:42.117Z,945.20
2023-05-19T03:05:42.373Z,1029.10
2023-05-19T03:06:43.070Z,1040.80
2023-05-19T03:07:42.090Z,1045.20
2023-05-19T03:08:42.516Z,1046.70
2023-05-19T03:09:43.088Z,1280.20
2023-05-19T03:10:42.072Z,1234.90
2023-05-19T03:11:42.068Z,1135.80
2023-05-19T03:12:42.336Z,1164.50
2023-05-19T03:13:41.989Z,1042.10
2023-05-19T03:14:41.940Z,1047.90
2023-05-19T03:15:41.964Z,1089.80
2023-05-19T03:16:42.141Z,1088.30
2023-05-19T03:17:42.086Z,1120.00
2023-05-19T03:18:41.945Z,1115.70
2023-05-19T03:19:41.902Z,1098.90
2023-05-19T03:20:41.933Z,1048.10
2023-05-19T03:21:41.906Z,967.40
2023-05-19T03:22:41.908Z,853.30
2023-05-19T03:23:42.045Z,823.00
2023-05-19T03:24:41.985Z,854.80
2023-05-19T03:25:41.975Z,872.80
2023-05-19T03:26:41.973Z,808.60
2023-05-19T03:27:42.021Z,863.30
2023-05-19T03:28:41.934Z,825.60
2023-05-19T03:29:42.048Z,840.20
2023-05-19T03:30:41.986Z,851.30
2023-05-19T03:31:41.938Z,834.80
2023-05-19T03:32:42.099Z,829.70
2023-05-19T03:33:42.285Z,827.90
2023-05-19T03:34:41.961Z,835.90
2023-05-19T03:35:41.935Z,807.80
2023-05-19T03:36:41.902Z,857.00
2023-05-19T03:37:41.895Z,866.00
2023-05-19T03:38:41.877Z,812.80
2023-05-19T03:39:42.381Z,848.90
2023-05-19T03:40:41.872Z,812.20
2023-05-19T03:41:42.003Z,824.10
2023-05-19T03:42:41.864Z,849.70
2023-05-19T03:43:41.873Z,852.40
2023-05-19T03:44:41.737Z,879.50
2023-05-19T03:45:41.963Z,806.00
2023-05-19T03:46:41.818Z,816.60
2023-05-19T03:47:41.821Z,774.30
2023-05-19T03:48:41.819Z,868.90
2023-05-19T03:49:41.853Z,855.80
2023-05-19T03:50:41.809Z,853.30
2023-05-19T03:51:41.789Z,846.10
2023-05-19T03:52:41.746Z,829.70
2023-05-19T03:53:41.783Z,844.80
2023-05-19T03:54:41.798Z,814.10
2023-05-19T03:55:41.719Z,760.50
2023-05-19T03:56:41.680Z,803.60
2023-05-19T03:57:41.658Z,847.20
2023-05-19T03:58:41.648Z,884.70
2023-05-19T03:59:41.645Z,881.50
2023-05-19T04:00:41.761Z,850.30
2023-05-19T04:01:41.986Z,829.50
2023-05-19T04:02:41.688Z,859.00
2023-05-19T04:03:41.793Z,845.60
2023-05-19T04:04:41.843Z,758.20
2023-05-19T04:05:41.713Z,751.90
2023-05-19T04:06:41.830Z,745.40
2023-05-19T04:07:41.949Z,805.10
2023-05-19T04:08:41.756Z,831.50
2023-05-19T04:09:41.752Z,834.20
2023-05-19T04:10:41.681Z,804.90
2023-05-19T04:11:41.669Z,835.70
2023-05-19T04:12:41.689Z,759.50
2023-05-19T04:13:41.568Z,843.10
2023-05-19T04:14:41.629Z,809.30
2023-05-19T04:15:41.719Z,853.70
2023-05-19T08:14:48.801Z,15.50
2023-05-19T08:15:48.919Z,9.90
2023-05-19T08:16:48.938Z,11.30
2023-05-19T08:17:49.215Z,14.30
2023-05-19T08:18:50.172Z,10.00
2023-05-19T08:19:50.049Z,12.10
2023-05-19T08:20:50.139Z,17.40
2023-05-19T08:21:50.107Z,20.30
2023-05-19T08:22:50.085Z,17.60
2023-05-19T08:23:50.000Z,22.00
2023-05-19T08:24:49.940Z,25.30
2023-05-19T08:25:49.917Z,20.00
2023-05-19T08:26:49.936Z,19.20
2023-05-19T08:27:50.073Z,15.20
2023-05-19T08:28:49.940Z,20.30
2023-05-19T08:29:49.909Z,22.50
2023-05-19T08:30:50.034Z,17.30
2023-05-19T08:31:49.919Z,17.40
2023-05-19T08:32:49.994Z,13.70
2023-05-19T08:33:50.190Z,10.90
2023-05-19T08:34:50.001Z,15.00
2023-05-19T08:35:49.990Z,12.30
2023-05-19T08:36:49.910Z,14.40
2023-05-19T08:37:49.981Z,15.20
2023-05-19T08:38:49.952Z,12.60
2023-05-19T08:39:49.965Z,12.80
2023-05-19T08:40:49.954Z,16.30
2023-05-19T08:41:49.921Z,16.30
2023-05-19T08:42:49.850Z,9.20
2023-05-19T08:43:49.954Z,13.00
2023-05-19T08:44:50.101Z,15.60
2023-05-19T08:45:49.870Z,16.60
2023-05-19T08:46:50.041Z,16.00
2023-05-19T08:47:49.940Z,17.80
2023-05-19T08:48:50.067Z,21.90
2023-05-19T08:49:49.869Z,22.30
2023-05-19T08:50:49.909Z,20.30
2023-05-19T08:51:49.871Z,25.40
2023-05-19T08:52:52.490Z,15.10
2023-05-19T08:53:50.972Z,12.40
2023-05-19T08:54:49.718Z,14.60
2023-05-19T08:55:49.692Z,8.90
2023-05-19T08:56:49.791Z,11.50
2023-05-19T08:57:49.749Z,11.20
2023-05-19T08:58:49.758Z,11.50
2023-05-19T08:59:49.663Z,11.30
2023-05-19T09:00:49.669Z,12.30
2023-05-19T09:01:49.652Z,9.50
2023-05-19T09:02:59.855Z,10.20
2023-05-19T09:03:51.756Z,11.90
2023-05-19T09:04:49.739Z,10.30
2023-05-19T09:05:49.766Z,7.80
2023-05-19T09:06:49.757Z,11.00
2023-05-19T09:07:49.720Z,8.60
2023-05-19T09:08:49.796Z,11.80
2023-05-19T09:09:49.818Z,11.70
2023-05-19T09:10:49.827Z,7.90
2023-05-19T09:11:49.945Z,10.30
2023-05-19T09:12:49.928Z,12.30
2023-05-19T09:13:49.536Z,8.20
2023-05-19T09:14:49.647Z,7.90
2023-05-19T09:15:50.726Z,7.70
2023-05-19T09:16:49.855Z,8.20
2023-05-19T09:17:49.732Z,6.10
2023-05-19T09:18:49.673Z,7.50
2023-05-19T09:19:49.584Z,6.50
2023-05-19T09:20:49.630Z,7.40
2023-05-19T09:21:50.219Z,8.50
2023-05-19T09:22:49.608Z,6.60
2023-05-19T09:23:49.769Z,6.90
2023-05-19T09:24:49.537Z,7.30
2023-05-19T09:25:49.622Z,8.10
2023-05-19T09:26:50.026Z,7.20
2023-05-19T09:27:49.983Z,10.00
2023-05-19T09:28:49.844Z,7.20
2023-05-19T09:29:49.649Z,6.60
2023-05-19T09:30:49.567Z,10.30
2023-05-19T09:31:50.029Z,6.80
2023-05-19T09:32:49.556Z,6.60
2023-05-19T09:33:49.560Z,6.40
2023-05-19T09:34:49.563Z,9.30
2023-05-19T09:35:49.498Z,7.00
2023-05-19T09:36:51.534Z,6.90
2023-05-19T09:37:49.518Z,8.20
2023-05-19T09:38:49.457Z,7.90
2023-05-19T09:39:49.777Z,11.30
2023-05-19T09:40:49.602Z,6.90
2023-05-19T09:41:49.762Z,10.40
2023-05-19T09:42:49.558Z,7.40
2023-05-19T09:43:49.505Z,7.90
2023-05-19T09:44:49.447Z,6.20
2023-05-19T09:45:49.382Z,7.10
2023-05-19T09:46:49.345Z,6.60
2023-05-19T09:47:49.510Z,7.90
2023-05-19T09:48:49.497Z,6.80
2023-05-19T09:49:49.571Z,8.40
2023-05-19T09:50:49.530Z,7.40
2023-05-19T09:51:49.356Z,5.40
2023-05-19T09:52:50.490Z,8.70
2023-05-19T09:53:49.328Z,7.10
2023-05-19T09:54:49.627Z,5.30
2023-05-19T09:55:49.478Z,7.90
2023-05-19T09:56:49.577Z,6.40
2023-05-19T09:57:49.536Z,8.50
2023-05-19T09:58:49.472Z,7.70
2023-05-19T09:59:49.600Z,8.90
2023-05-19T10:00:49.441Z,5.90
2023-05-19T10:01:49.596Z,7.80
2023-05-19T10:02:49.290Z,9.90
2023-05-19T10:03:49.596Z,7.40
2023-05-19T10:04:49.368Z,7.40
2023-05-19T10:05:49.745Z,9.30
2023-05-19T10:06:49.501Z,6.50
2023-05-19T10:07:49.615Z,8.30
2023-05-19T10:08:49.867Z,7.30
2023-05-19T10:09:49.624Z,5.90
2023-05-19T10:10:49.187Z,6.50
2023-05-19T10:11:49.243Z,6.60
2023-05-19T10:12:49.231Z,6.30
2023-05-19T10:13:50.246Z,7.20
2023-05-19T10:14:49.118Z,7.90
2023-05-19T10:15:57.929Z,8.00
2023-05-19T10:16:51.222Z,7.10
2023-05-19T10:17:49.141Z,7.90
2023-05-19T10:18:49.259Z,5.00
2023-05-19T10:19:49.225Z,7.50
2023-05-19T10:20:49.189Z,5.00
2023-05-19T10:21:49.237Z,49.80
2023-05-19T10:22:49.274Z,17.80
2023-05-19T10:23:49.474Z,12.80
2023-05-19T10:24:49.176Z,12.20
2023-05-19T10:25:49.394Z,13.50
2023-05-19T10:26:49.157Z,7.30
2023-05-19T10:27:49.176Z,6.30
2023-05-19T10:28:49.150Z,7.10
2023-05-19T10:29:49.630Z,5.10
2023-05-19T10:30:49.172Z,5.20
2023-05-19T10:31:49.344Z,6.60
2023-05-19T10:32:49.191Z,6.00
2023-05-19T10:33:49.432Z,5.40
2023-05-19T10:34:49.604Z,6.10
2023-05-19T10:35:49.270Z,6.30
2023-05-19T10:36:49.569Z,6.60
2023-05-19T10:37:50.169Z,5.50
2023-05-19T10:38:49.132Z,7.30
2023-05-19T10:39:49.125Z,5.80
2023-05-19T10:40:48.986Z,6.40
2023-05-19T10:41:49.008Z,6.70
2023-05-19T10:42:49.028Z,6.90
2023-05-19T10:43:48.911Z,8.20
2023-05-19T10:44:49.592Z,6.20
2023-05-19T10:45:48.883Z,6.90
2023-05-19T10:46:49.098Z,6.00
2023-05-19T10:47:48.905Z,5.70
2023-05-19T10:48:49.211Z,7.10
2023-05-19T10:49:48.972Z,6.50
2023-05-19T10:50:48.978Z,7.30
2023-05-19T10:51:49.205Z,6.40
2023-05-19T10:52:49.173Z,6.20
2023-05-19T10:53:49.568Z,8.80
2023-05-19T10:54:49.485Z,8.90
2023-05-19T10:55:49.267Z,6.10
2023-05-19T10:56:49.016Z,4.90
2023-05-19T10:57:48.959Z,5.10
2023-05-19T10:58:49.026Z,5.10
2023-05-19T10:59:49.247Z,6.50
2023-05-19T11:00:49.365Z,7.90
2023-05-19T11:01:49.028Z,6.80
2023-05-19T11:02:49.826Z,6.70
2023-05-19T11:03:49.114Z,6.10
2023-05-19T11:04:51.307Z,4.60
2023-05-19T11:05:49.940Z,6.30
2023-05-19T11:06:48.753Z,4.90
2023-05-19T11:07:49.047Z,5.20
2023-05-19T11:08:49.197Z,4.80
2023-05-19T11:09:48.745Z,5.30
2023-05-19T11:10:48.701Z,6.30
2023-05-19T11:11:48.786Z,7.10
2023-05-19T11:12:48.919Z,5.90
2023-05-19T11:13:48.873Z,8.20
2023-05-19T11:14:48.806Z,8.10
2023-05-19T11:15:48.813Z,6.90
2023-05-19T11:16:49.111Z,9.20
2023-05-19T11:17:49.137Z,6.20
2023-05-19T11:18:48.849Z,8.10
2023-05-19T11:19:48.797Z,7.20
2023-05-19T11:20:48.798Z,7.70
2023-05-19T11:21:48.790Z,5.60
2023-05-19T11:22:48.886Z,7.90
2023-05-19T11:23:49.107Z,4.90
2023-05-19T11:24:48.756Z,5.50
2023-05-19T11:25:48.758Z,6.70
2023-05-19T11:26:48.789Z,6.80
2023-05-19T11:27:48.801Z,5.20
2023-05-19T11:28:48.977Z,4.90
2023-05-19T11:29:48.668Z,6.40
2023-05-19T11:30:48.672Z,12.90
2023-05-19T11:31:48.684Z,5.50
2023-05-19T11:32:48.777Z,4.80
2023-05-19T11:33:48.634Z,5.90
2023-05-19T11:34:48.655Z,5.10
2023-05-19T11:35:48.573Z,6.20
2023-05-19T11:36:48.675Z,4.90
2023-05-19T11:37:48.569Z,7.50
2023-05-19T11:38:48.535Z,6.90
2023-05-19T11:39:48.525Z,5.80
2023-05-19T11:40:48.487Z,4.50
2023-05-19T11:41:48.509Z,4.50
2023-05-19T11:42:48.683Z,4.90
2023-05-19T11:43:48.511Z,6.30
2023-05-19T11:44:48.488Z,5.40
2023-05-19T11:45:48.663Z,6.70
2023-05-19T11:46:48.724Z,4.90
2023-05-19T11:48:01.365Z,4.70
2023-05-19T11:48:50.583Z,4.90
2023-05-19T11:49:48.475Z,4.40
2023-05-19T11:50:48.583Z,5.00
2023-05-19T11:51:48.528Z,6.40
2023-05-19T11:52:48.526Z,4.70
2023-05-19T11:53:48.833Z,7.00
2023-05-19T11:54:48.513Z,5.60
2023-05-19T11:55:49.220Z,5.30
2023-05-19T11:56:48.612Z,5.00
2023-05-19T11:58:02.157Z,5.20
2023-05-19T11:58:50.689Z,5.40
2023-05-19T11:59:48.488Z,6.30
2023-05-19T12:00:48.615Z,9.90
2023-05-19T12:01:48.443Z,8.60
2023-05-19T12:02:48.566Z,4.80
2023-05-19T12:03:48.553Z,5.90
2023-05-19T12:04:48.532Z,5.40
2023-05-19T12:05:48.912Z,5.30
2023-05-19T12:06:48.515Z,4.50
2023-05-19T12:07:48.369Z,8.40
2023-05-19T12:08:48.351Z,7.80
2023-05-19T12:09:48.659Z,9.20
2023-05-19T12:10:48.473Z,5.20
2023-05-19T12:11:48.628Z,6.60
2023-05-19T12:12:48.396Z,8.90
2023-05-19T12:13:48.251Z,6.50
2023-05-19T12:14:48.478Z,6.40
2023-05-19T12:15:48.390Z,5.80
2023-05-19T12:16:48.329Z,6.70
2023-05-19T12:17:48.292Z,5.70
2023-05-19T12:18:48.356Z,5.10
2023-05-19T12:19:48.525Z,5.20
2023-05-19T12:20:48.329Z,5.40
2023-05-19T12:21:48.196Z,5.10
2023-05-19T12:22:48.216Z,6.30
2023-05-19T12:23:48.277Z,5.70
2023-05-19T12:24:48.234Z,4.60
2023-05-19T12:25:48.811Z,6.40
2023-05-19T12:26:48.516Z,7.10
2023-05-19T12:27:48.302Z,6.50
2023-05-19T12:28:48.270Z,5.90
2023-05-19T12:29:48.294Z,7.10
2023-05-19T12:30:48.282Z,3.80
2023-05-19T12:31:48.302Z,5.70
2023-05-19T12:32:48.273Z,3.90
2023-05-19T12:33:48.204Z,4.70
2023-05-19T12:34:48.206Z,4.90
2023-05-19T12:35:48.216Z,5.90
2023-05-19T12:36:48.248Z,4.80
2023-05-19T12:37:48.547Z,5.50
2023-05-19T12:38:48.188Z,5.10
2023-05-19T12:39:48.215Z,5.00
2023-05-19T12:40:48.158Z,6.20
2023-05-19T12:41:48.299Z,5.60
2023-05-19T12:42:48.248Z,4.90
2023-05-19T12:43:48.175Z,5.00
2023-05-19T12:44:48.234Z,6.60
2023-05-19T12:45:48.235Z,5.90
2023-05-19T12:46:48.444Z,6.20
2023-05-19T12:47:48.124Z,6.40
2023-05-19T12:48:48.669Z,4.40
2023-05-19T12:49:48.100Z,9.30
2023-05-19T12:50:48.153Z,6.90
2023-05-19T12:51:48.145Z,8.60
2023-05-19T12:52:48.216Z,7.50
2023-05-19T12:53:47.995Z,5.20
2023-05-19T12:54:48.028Z,5.80
2023-05-19T12:55:47.967Z,4.50
2023-05-19T12:56:47.944Z,5.90
2023-05-19T12:57:49.942Z,4.50
2023-05-19T12:58:49.048Z,3.20
2023-05-19T12:59:47.901Z,4.80
2023-05-19T13:00:48.149Z,4.70
2023-05-19T13:01:48.372Z,5.80
2023-05-19T13:02:48.444Z,4.50
2023-05-19T13:03:48.137Z,6.30
2023-05-19T13:04:47.995Z,4.80
2023-05-19T13:05:48.118Z,5.50
2023-05-19T13:06:48.024Z,6.30
2023-05-19T13:07:48.113Z,6.20
2023-05-19T13:08:47.996Z,5.50
2023-05-19T13:09:48.026Z,8.50
2023-05-19T13:10:47.891Z,6.80
2023-05-19T13:11:48.056Z,4.60
2023-05-19T13:12:48.229Z,5.40
2023-05-19T13:13:47.902Z,7.90
2023-05-19T13:14:48.148Z,6.50
2023-05-19T13:15:47.924Z,8.20
2023-05-19T13:16:47.951Z,7.80
2023-05-19T13:17:47.936Z,4.70
2023-05-19T13:18:47.950Z,6.30
2023-05-19T13:19:48.250Z,3.80
2023-05-19T13:20:47.873Z,7.60
2023-05-19T13:21:47.890Z,4.20
2023-05-19T13:22:48.129Z,5.10
2023-05-19T13:23:47.861Z,11.90
2023-05-19T13:24:47.967Z,6.40
2023-05-19T13:25:48.111Z,6.70
2023-05-19T13:26:47.826Z,5.40
2023-05-19T13:27:48.028Z,6.60
2023-05-19T13:28:47.926Z,5.90
2023-05-19T13:29:48.786Z,6.40
2023-05-19T13:30:47.898Z,5.20
2023-05-19T13:31:47.804Z,6.10
2023-05-19T13:32:47.896Z,7.30
2023-05-19T13:33:47.847Z,5.20
2023-05-19T13:34:47.873Z,6.60
2023-05-19T13:35:47.867Z,4.70
2023-05-19T13:36:48.629Z,5.00
2023-05-19T13:37:47.911Z,5.80
2023-05-19T13:38:48.001Z,5.90
2023-05-19T13:39:47.741Z,7.20
2023-05-19T13:40:47.767Z,4.80
2023-05-19T13:41:47.617Z,3.90
2023-05-19T13:42:47.606Z,4.50
2023-05-19T13:43:47.645Z,5.20
2023-05-19T13:44:47.668Z,6.70
2023-05-19T13:45:47.804Z,5.90
2023-05-19T13:46:49.999Z,4.50
2023-05-19T13:47:47.662Z,4.40
2023-05-19T13:48:48.110Z,4.10
2023-05-19T13:49:47.658Z,5.50
2023-05-19T13:50:47.961Z,5.90
2023-05-19T13:51:47.694Z,4.50
2023-05-19T13:52:47.828Z,5.40
2023-05-19T13:53:47.691Z,4.30
2023-05-19T13:54:47.685Z,5.30
2023-05-19T13:55:47.742Z,6.60
2023-05-19T13:56:47.702Z,7.00
2023-05-19T13:57:47.700Z,5.50
2023-05-19T13:58:47.627Z,4.90
2023-05-19T14:00:00.942Z,4.90
2023-05-19T14:00:49.685Z,4.50
2023-05-19T14:01:47.839Z,5.10
2023-05-19T14:02:47.673Z,5.00
2023-05-19T14:03:47.681Z,7.10
2023-05-19T14:04:47.559Z,5.10
2023-05-19T14:05:47.586Z,6.10
2023-05-19T14:06:47.797Z,4.10
2023-05-19T14:07:48.094Z,5.20
2023-05-19T14:08:47.609Z,7.30
2023-05-19T14:09:47.554Z,4.90
2023-05-19T14:10:47.765Z,7.60
2023-05-19T14:11:47.812Z,5.30
2023-05-19T14:13:14.176Z,7.00
2023-05-19T14:13:51.740Z,4.40
2023-05-19T14:14:47.450Z,6.00
2023-05-19T14:15:47.564Z,4.60
2023-05-19T14:16:47.626Z,4.00
2023-05-19T14:17:47.528Z,5.90
2023-05-19T14:18:47.946Z,5.60
2023-05-19T14:19:47.406Z,5.10
2023-05-19T14:20:47.444Z,6.80
2023-05-19T14:21:47.504Z,7.80
2023-05-19T14:22:47.787Z,5.10
2023-05-19T14:23:47.820Z,5.10
2023-05-19T14:24:47.697Z,3.10
2023-05-19T14:25:47.560Z,4.20
2023-05-19T14:26:47.436Z,8.00
2023-05-19T14:27:47.845Z,3.40
2023-05-19T14:28:47.439Z,4.90
2023-05-19T14:29:47.779Z,5.50
2023-05-19T14:30:47.528Z,3.50
2023-05-19T14:31:47.501Z,5.80
2023-05-19T14:32:47.908Z,3.90
2023-05-19T14:33:47.474Z,5.10
2023-05-19T14:34:48.324Z,4.90
2023-05-19T14:35:47.861Z,7.70
2023-05-19T14:36:47.506Z,5.30
2023-05-19T14:37:47.918Z,4.60
2023-05-19T14:38:48.393Z,6.40
2023-05-19T14:39:48.892Z,4.20
2023-05-19T14:40:47.913Z,4.60
2023-05-19T14:41:47.845Z,7.00
2023-05-19T14:42:47.925Z,3.40
2023-05-19T14:43:48.919Z,4.80
2023-05-19T14:44:47.831Z,4.00
2023-05-19T14:45:47.758Z,2.80
2023-05-19T14:46:48.076Z,4.00
2023-05-19T14:47:48.092Z,3.40
2023-05-19T14:48:47.689Z,4.50
2023-05-19T14:49:48.170Z,5.90
2023-05-19T14:50:47.993Z,7.50
2023-05-19T14:51:47.680Z,4.70
2023-05-19T14:52:47.262Z,4.20
2023-05-19T14:53:47.666Z,7.20
2023-05-19T14:54:47.301Z,3.90
2023-05-19T14:55:47.268Z,5.40
2023-05-19T14:56:47.288Z,3.70
2023-05-19T14:57:47.161Z,4.40
2023-05-19T14:58:47.211Z,3.60
2023-05-19T14:59:47.131Z,5.20
2023-05-19T15:00:47.567Z,7.60
2023-05-19T15:01:47.796Z,7.80
2023-05-19T15:02:47.515Z,5.00
2023-05-19T15:03:47.215Z,5.10
2023-05-19T15:04:47.900Z,4.40
2023-05-19T15:05:47.799Z,5.90
2023-05-19T15:06:52.293Z,5.00
2023-05-19T15:07:48.245Z,6.60
2023-05-19T15:08:47.450Z,6.40
2023-05-19T15:09:47.081Z,4.90
2023-05-19T15:10:47.479Z,7.70
2023-05-19T15:11:47.260Z,5.00
2023-05-19T15:12:47.671Z,5.10
2023-05-19T15:13:47.688Z,6.00
2023-05-19T15:14:47.364Z,5.10
2023-05-19T15:15:47.160Z,5.20
2023-05-19T15:16:47.659Z,7.50
2023-05-19T15:17:47.213Z,6.60
2023-05-19T15:18:47.073Z,5.60
2023-05-19T15:19:47.031Z,4.20
2023-05-19T15:20:47.274Z,5.80
2023-05-19T15:21:47.547Z,3.70
2023-05-19T15:22:47.037Z,6.20
2023-05-19T15:23:47.389Z,4.70
2023-05-19T15:24:47.274Z,5.00
2023-05-19T15:25:47.484Z,4.40
2023-05-19T15:26:46.963Z,4.50
2023-05-19T15:27:47.191Z,4.80
2023-05-19T15:28:47.392Z,6.00
2023-05-19T15:29:47.668Z,4.10
2023-05-19T15:30:47.306Z,6.00
2023-05-19T15:31:47.260Z,5.80
2023-05-19T15:32:47.782Z,4.60
2023-05-19T15:33:47.328Z,4.10
2023-05-19T15:34:47.274Z,5.20
2023-05-19T15:35:47.444Z,5.80
2023-05-19T15:36:47.248Z,6.60
2023-05-19T15:37:47.288Z,5.40
2023-05-19T15:38:46.918Z,7.20
2023-05-19T15:39:47.135Z,3.70
2023-05-19T15:40:47.035Z,3.80
2023-05-19T15:41:46.898Z,10.80
2023-05-19T15:42:46.957Z,15.50
2023-05-19T15:43:46.965Z,5.40
2023-05-19T15:44:46.943Z,4.80
2023-05-19T15:45:46.779Z,7.80
2023-05-19T15:46:46.979Z,13.40
2023-05-19T15:47:46.806Z,5.70
2023-05-19T15:48:46.806Z,5.50
2023-05-19T15:49:47.085Z,3.60
2023-05-19T15:50:46.732Z,4.80
2023-05-19T15:51:47.088Z,4.00
2023-05-19T15:52:46.990Z,3.80
2023-05-19T15:53:47.483Z,4.60
2023-05-19T15:54:46.921Z,8.20
2023-05-19T15:55:47.559Z,4.90
2023-05-19T15:56:46.876Z,3.60
2023-05-19T15:57:46.827Z,5.90
2023-05-19T15:58:47.296Z,8.30
2023-05-19T15:59:47.343Z,18.90
2023-05-19T16:00:47.116Z,12.00
2023-05-19T16:01:47.318Z,7.40
2023-05-19T16:02:47.536Z,4.00
2023-05-19T16:03:47.026Z,6.80
2023-05-19T16:04:46.776Z,4.30
2023-05-19T16:05:46.699Z,5.90
2023-05-19T16:06:46.812Z,17.20
2023-05-19T16:07:46.664Z,6.60
2023-05-19T16:08:46.857Z,13.00
2023-05-19T16:09:46.740Z,7.70
2023-05-19T16:10:47.051Z,6.00
2023-05-19T16:11:46.710Z,5.80
2023-05-19T16:12:47.077Z,5.80
2023-05-19T16:13:47.727Z,6.20
2023-05-19T16:14:47.196Z,19.40
2023-05-19T16:15:47.001Z,20.60
2023-05-19T16:16:46.694Z,12.90
2023-05-19T16:17:46.754Z,11.80
2023-05-19T16:18:47.089Z,6.30
2023-05-19T16:19:47.444Z,7.00
2023-05-19T16:20:46.902Z,5.10
2023-05-19T16:21:47.153Z,8.80
2023-05-19T16:22:47.129Z,6.30
2023-05-19T16:23:46.961Z,6.70
2023-05-19T16:24:47.121Z,3.70
2023-05-19T16:25:46.511Z,5.00
2023-05-19T16:26:46.581Z,11.20
2023-05-19T16:27:46.482Z,5.30
2023-05-19T16:28:47.058Z,7.50
2023-05-19T16:29:46.544Z,7.50
2023-05-19T16:30:47.114Z,5.80
2023-05-19T16:31:47.029Z,6.60
2023-05-19T16:32:47.010Z,5.30
2023-05-19T16:33:46.827Z,6.10
2023-05-19T16:34:46.626Z,6.70
2023-05-19T16:35:47.003Z,5.80
2023-05-19T16:36:46.530Z,5.20
2023-05-19T16:37:46.485Z,4.50
2023-05-19T16:38:47.001Z,5.40
2023-05-19T16:39:47.689Z,4.90
2023-05-19T16:40:46.472Z,5.10
2023-05-19T16:41:46.496Z,3.80
2023-05-19T16:42:46.614Z,5.10
2023-05-19T16:43:46.428Z,4.60
2023-05-19T16:44:47.246Z,3.40
2023-05-19T16:45:47.116Z,3.80
2023-05-19T16:46:47.032Z,5.90
2023-05-19T16:47:47.136Z,4.70
2023-05-19T16:48:47.052Z,5.30
2023-05-19T16:49:46.967Z,5.80
2023-05-19T16:50:47.095Z,7.40
2023-05-19T16:51:48.295Z,14.20
2023-05-19T16:52:47.956Z,11.60
2023-05-19T16:53:46.818Z,17.80